SVA114 OEJN-HSSK
Flight info
| Callsign | SVA114 |
|---|---|
| Flight time | N/A |
| Altitude | 38000 |
| Route | KAROX L311 PASIL PASIL1B |
| Aircraft | B744/H-SDE3FGHIM1M2RWXY/LB1 |
Departure
| Time | 2026-04-29 11:18 |
|---|---|
| Airport | King Abdulaziz International Airport (OEJN) |
Arrival
| Time | N/A |
|---|---|
| Airport | Khartoum International Airport (HSSK) |
| Time | Latitude | Longitude | Altitude | Speed | Heading |
|---|---|---|---|---|---|
| 2026-04-29 11:16 | 21.66844 | 39.17978 | 59 ft | 0 kts | 335° |
| 2026-04-29 11:17 | 21.66845 | 39.17977 | 59 ft | 2 kts | 335° |
| 2026-04-29 11:17 | 21.67030 | 39.17900 | 59 ft | 54 kts | 339° |
| 2026-04-29 11:17 | 21.67380 | 39.17764 | 59 ft | 105 kts | 340° |
| 2026-04-29 11:17 | 21.68286 | 39.17402 | 101 ft | 167 kts | 339° |
| 2026-04-29 11:18 | 21.69429 | 39.16958 | 688 ft | 182 kts | 339° |
| 2026-04-29 11:18 | 21.71005 | 39.16344 | 1931 ft | 181 kts | 340° |
| 2026-04-29 11:18 | 21.71771 | 39.16037 | 2381 ft | 180 kts | 340° |
| 2026-04-29 11:18 | 21.73353 | 39.15488 | 3108 ft | 180 kts | 355° |
| 2026-04-29 11:19 | 21.74573 | 39.15700 | 3567 ft | 184 kts | 24° |
| 2026-04-29 11:19 | 21.75272 | 39.16233 | 3870 ft | 189 kts | 44° |
| 2026-04-29 11:19 | 21.76000 | 39.17967 | 4478 ft | 200 kts | 79° |
| 2026-04-29 11:19 | 21.76080 | 39.18962 | 4816 ft | 202 kts | 82° |
| 2026-04-29 11:20 | 21.76255 | 39.20450 | 5338 ft | 202 kts | 77° |
| 2026-04-29 11:20 | 21.76528 | 39.22451 | 6052 ft | 203 kts | 79° |
| 2026-04-29 11:20 | 21.76662 | 39.23443 | 6402 ft | 202 kts | 78° |
| 2026-04-29 11:20 | 21.76932 | 39.25430 | 7076 ft | 203 kts | 79° |
| 2026-04-29 11:21 | 21.77068 | 39.26429 | 7407 ft | 204 kts | 79° |
| 2026-04-29 11:21 | 21.77186 | 39.27959 | 7873 ft | 208 kts | 93° |
| 2026-04-29 11:21 | 21.76410 | 39.29870 | 8442 ft | 218 kts | 129° |
| 2026-04-29 11:21 | 21.75640 | 39.30554 | 8734 ft | 222 kts | 146° |
| 2026-04-29 11:22 | 21.74171 | 39.31065 | 9182 ft | 228 kts | 173° |
| 2026-04-29 11:22 | 21.72597 | 39.30837 | 9637 ft | 233 kts | 199° |
| 2026-04-29 11:22 | 21.70839 | 39.29442 | 10090 ft | 250 kts | 232° |
| 2026-04-29 11:22 | 21.70228 | 39.28327 | 10212 ft | 264 kts | 248° |
| 2026-04-29 11:23 | 21.69241 | 39.25824 | 10750 ft | 279 kts | 234° |
| 2026-04-29 11:23 | 21.68014 | 39.24236 | 11474 ft | 279 kts | 227° |
| 2026-04-29 11:23 | 21.66748 | 39.22664 | 12189 ft | 281 kts | 229° |